Carroll, Ohio
Current Conditions -  °F | °C
As of 12:53 PM on Friday 24 Oct 2014 (Local Time) from KLHQ Reporting Station
Clear Clear  
Wind Chill: 60°   Ceiling: Unl
Heat Index: 60°   Visibility: 10mi
Dew Point: 42°   Wind: 6mph
Humidity: 51%   Direction: NA
Pressure: 30.1"   Gusts: NA
Location:  39.8°N, 82.7°W
Report Text: KLHQ 241653Z AUTO VRB05KT 10SM CLR 16/06 A3010 RMK AO2 SLP195 T01560056
Loading
Personal Weather Stations






























Interactive Weather Map
Tropical Storm Tracking
New forecast layout! Learn more

10-Day Weather Forecast

Advertisements
Track Severe Weather on mobile